Time;durP1;ratioP1;P1;durP2;ratioP2;P2;SDS_P1;SDS_P2;PMS_P1;PMS_P2;Temp;Humidity;BMP_temperature;BMP_pressure;BME280_temperature;BME280_humidity;BME280_pressure;Samples;Min_cycle;Max_cycle;Signal;HPM_P1;HPM_P2
2020/12/13 00:00:39;;;;;;;8.70;2.00;;;;;;;;;;5019293;28;20422;-81
2020/12/13 00:03:05;;;;;;;4.60;1.95;;;;;;;;;;5039108;28;20205;-81
2020/12/13 00:05:32;;;;;;;6.60;2.05;;;;;;;;;;5023841;28;20198;-81
2020/12/13 00:07:58;;;;;;;3.05;2.30;;;;;;;;;;5039004;28;20183;-81
2020/12/13 00:10:24;;;;;;;6.40;2.20;;;;;;;;;;5024016;28;20201;-81
2020/12/13 00:12:50;;;;;;;3.63;1.95;;;;;;;;;;5038147;28;20179;-81
2020/12/13 00:15:17;;;;;;;3.13;2.65;;;;;;;;;;5023907;28;20206;-81
2020/12/13 00:17:44;;;;;;;4.45;2.60;;;;;;;;;;5038749;28;20186;-81
2020/12/13 00:20:10;;;;;;;6.20;3.15;;;;;;;;;;5038395;28;20186;-81
2020/12/13 00:22:36;;;;;;;2.42;2.17;;;;;;;;;;5038793;28;20265;-81
2020/12/13 00:25:02;;;;;;;6.00;2.10;;;;;;;;;;5023903;28;20248;-81
2020/12/13 00:27:28;;;;;;;6.22;2.72;;;;;;;;;;5024129;28;20234;-81
2020/12/13 00:29:54;;;;;;;6.93;1.90;;;;;;;;;;5023922;28;20213;-81
2020/12/13 00:32:20;;;;;;;4.85;2.03;;;;;;;;;;5023544;28;20429;-81
2020/12/13 00:34:46;;;;;;;7.03;1.75;;;;;;;;;;5038630;28;20519;-80
2020/12/13 00:37:12;;;;;;;4.33;1.80;;;;;;;;;;5038373;28;20186;-81
2020/12/13 00:39:38;;;;;;;8.88;3.83;;;;;;;;;;5022827;28;20442;-81
2020/12/13 00:42:04;;;;;;;7.63;3.10;;;;;;;;;;5037937;28;20189;-81
2020/12/13 00:44:30;;;;;;;3.95;2.30;;;;;;;;;;5038216;28;20233;-82
2020/12/13 00:46:56;;;;;;;8.80;2.40;;;;;;;;;;5038351;28;20198;-81
2020/12/13 00:49:22;;;;;;;6.28;2.45;;;;;;;;;;5023067;28;20274;-81
2020/12/13 00:51:48;;;;;;;4.38;2.33;;;;;;;;;;5038731;28;20174;-81
2020/12/13 00:54:14;;;;;;;2.60;1.70;;;;;;;;;;5023837;28;20214;-81
2020/12/13 00:56:43;;;;;;;5.80;2.28;;;;;;;;;;5021663;28;20194;-80
2020/12/13 00:59:09;;;;;;;8.02;2.22;;;;;;;;;;5021630;28;20202;-80
2020/12/13 01:01:35;;;;;;;3.67;1.83;;;;;;;;;;5023536;28;20266;-81
2020/12/13 01:04:01;;;;;;;8.23;1.90;;;;;;;;;;5023064;28;20472;-80
2020/12/13 01:06:27;;;;;;;2.50;1.63;;;;;;;;;;5022237;28;20274;-81
2020/12/13 01:08:54;;;;;;;4.28;1.73;;;;;;;;;;5038428;28;20182;-81
2020/12/13 01:11:24;;;;;;;6.40;1.85;;;;;;;;;;5038136;28;20182;-81
2020/12/13 01:13:50;;;;;;;4.80;1.65;;;;;;;;;;5037029;28;20210;-80
2020/12/13 01:16:17;;;;;;;4.90;2.20;;;;;;;;;;5022814;28;20187;-80
2020/12/13 01:18:43;;;;;;;8.18;2.92;;;;;;;;;;5038910;28;20178;-82
2020/12/13 01:21:13;;;;;;;4.90;1.83;;;;;;;;;;5022110;28;20250;-81
2020/12/13 01:23:39;;;;;;;4.65;2.17;;;;;;;;;;5037322;28;20194;-80
2020/12/13 01:26:05;;;;;;;4.53;2.00;;;;;;;;;;5037073;28;20576;-82
2020/12/13 01:28:31;;;;;;;7.40;1.70;;;;;;;;;;5021937;28;20452;-81
2020/12/13 01:30:57;;;;;;;6.07;1.83;;;;;;;;;;5038332;28;20661;-82
2020/12/13 01:33:23;;;;;;;2.80;1.85;;;;;;;;;;5022057;28;20425;-81
2020/12/13 01:35:49;;;;;;;3.50;1.73;;;;;;;;;;5038126;28;20233;-82
2020/12/13 01:38:15;;;;;;;10.18;3.05;;;;;;;;;;5038140;28;20444;-82
2020/12/13 01:40:41;;;;;;;4.80;2.00;;;;;;;;;;5037727;28;20178;-81
2020/12/13 01:43:08;;;;;;;2.70;1.80;;;;;;;;;;5021589;28;20552;-81
2020/12/13 01:45:34;;;;;;;5.38;1.92;;;;;;;;;;5022289;28;20534;-81
2020/12/13 01:48:00;;;;;;;5.23;1.63;;;;;;;;;;5022272;28;20193;-82
2020/12/13 01:53:18;;;;;;;4.22;2.83;;;;;;;;;;5020843;28;20197;-81
2020/12/13 01:55:48;;;;;;;7.15;2.10;;;;;;;;;;5022365;28;20214;-80
2020/12/13 01:58:19;;;;;;;5.97;2.03;;;;;;;;;;5021000;28;20214;-82
2020/12/13 02:00:47;;;;;;;4.22;1.90;;;;;;;;;;5017834;28;20179;-80
2020/12/13 02:03:17;;;;;;;3.42;2.10;;;;;;;;;;5025704;28;20179;-81
2020/12/13 02:05:46;;;;;;;7.15;2.10;;;;;;;;;;5019562;28;20201;-81
2020/12/13 02:08:12;;;;;;;4.40;1.80;;;;;;;;;;5021593;28;20202;-81
2020/12/13 02:10:38;;;;;;;6.40;1.85;;;;;;;;;;5037400;28;20191;-81
2020/12/13 02:13:04;;;;;;;2.28;1.80;;;;;;;;;;5036503;28;20194;-80
2020/12/13 02:15:30;;;;;;;3.27;1.77;;;;;;;;;;5021882;28;20178;-81
2020/12/13 02:17:56;;;;;;;8.60;2.05;;;;;;;;;;5023366;28;20512;-81
2020/12/13 02:20:22;;;;;;;4.95;2.13;;;;;;;;;;5040773;28;20225;-80
2020/12/13 02:22:49;;;;;;;2.75;1.50;;;;;;;;;;5039219;28;20240;-80
2020/12/13 02:25:22;;;;;;;5.32;2.25;;;;;;;;;;5026336;28;20194;-80
2020/12/13 02:27:48;;;;;;;4.28;2.20;;;;;;;;;;5026163;28;20179;-81
2020/12/13 02:30:14;;;;;;;4.07;2.17;;;;;;;;;;5026736;28;20205;-81
2020/12/13 02:32:40;;;;;;;7.75;2.67;;;;;;;;;;5040602;28;20190;-81
2020/12/13 02:35:07;;;;;;;5.95;2.08;;;;;;;;;;5025615;28;20242;-81
2020/12/13 02:37:33;;;;;;;5.10;2.13;;;;;;;;;;5039903;28;20197;-81
2020/12/13 02:39:59;;;;;;;11.00;2.10;;;;;;;;;;5025645;28;20182;-81
2020/12/13 02:42:26;;;;;;;3.45;2.22;;;;;;;;;;5024559;28;20254;-80
2020/12/13 02:44:51;;;;;;;10.52;2.28;;;;;;;;;;5040773;28;20217;-81
2020/12/13 02:47:17;;;;;;;6.55;2.75;;;;;;;;;;5041201;28;20182;-81
2020/12/13 02:49:43;;;;;;;3.70;1.88;;;;;;;;;;5040382;28;20182;-80
2020/12/13 02:52:10;;;;;;;3.45;2.10;;;;;;;;;;5025062;28;20241;-81
2020/12/13 02:54:36;;;;;;;6.45;2.10;;;;;;;;;;5026161;28;20298;-80
2020/12/13 02:57:02;;;;;;;5.30;2.42;;;;;;;;;;5025846;28;20186;-81
2020/12/13 02:59:28;;;;;;;3.75;1.67;;;;;;;;;;5039717;28;20190;-79
2020/12/13 03:01:55;;;;;;;6.32;1.85;;;;;;;;;;5025404;28;20190;-82
2020/12/13 03:04:21;;;;;;;2.97;1.25;;;;;;;;;;5040337;28;20186;-80
2020/12/13 03:06:47;;;;;;;5.22;1.42;;;;;;;;;;5039906;28;20739;-81
2020/12/13 03:09:12;;;;;;;1.90;1.65;;;;;;;;;;5024147;28;20202;-80
2020/12/13 03:11:38;;;;;;;6.72;1.83;;;;;;;;;;5040447;28;20175;-80
2020/12/13 03:14:04;;;;;;;4.95;1.40;;;;;;;;;;5023339;28;20194;-81
2020/12/13 03:16:30;;;;;;;3.63;2.05;;;;;;;;;;5039293;28;20190;-80
2020/12/13 03:18:56;;;;;;;4.05;1.40;;;;;;;;;;5039973;28;20174;-80
2020/12/13 03:21:22;;;;;;;4.65;1.98;;;;;;;;;;5024190;28;20174;-81
2020/12/13 03:23:48;;;;;;;5.53;1.95;;;;;;;;;;5025011;28;20210;-80
2020/12/13 03:26:14;;;;;;;4.88;1.90;;;;;;;;;;5040130;28;20256;-81
2020/12/13 03:28:40;;;;;;;2.95;1.50;;;;;;;;;;5038904;28;20179;-80
2020/12/13 03:31:06;;;;;;;3.63;1.50;;;;;;;;;;5039478;28;20278;-80
2020/12/13 03:33:32;;;;;;;3.30;1.73;;;;;;;;;;5025453;28;20203;-80
2020/12/13 03:35:58;;;;;;;4.70;1.63;;;;;;;;;;5039518;28;20452;-80
2020/12/13 03:38:24;;;;;;;2.85;1.75;;;;;;;;;;5024324;28;20186;-81
2020/12/13 03:40:50;;;;;;;3.78;3.22;;;;;;;;;;5037022;28;20602;-80
2020/12/13 03:43:16;;;;;;;4.73;1.40;;;;;;;;;;5034299;28;20191;-81
2020/12/13 03:45:42;;;;;;;4.77;1.90;;;;;;;;;;5041199;28;20449;-80
2020/12/13 03:48:08;;;;;;;3.80;1.70;;;;;;;;;;5023958;28;20417;-81
2020/12/13 03:50:40;;;;;;;6.97;2.03;;;;;;;;;;5039168;28;20497;-81
2020/12/13 03:53:07;;;;;;;5.95;1.67;;;;;;;;;;5023159;28;20286;-80
2020/12/13 03:55:33;;;;;;;6.82;2.35;;;;;;;;;;5039087;28;20245;-81
2020/12/13 03:57:59;;;;;;;4.70;1.75;;;;;;;;;;5038849;28;20556;-80
2020/12/13 04:00:27;;;;;;;4.85;1.60;;;;;;;;;;5023864;28;20706;-81
2020/12/13 04:02:53;;;;;;;5.15;1.85;;;;;;;;;;5023854;28;20190;-80
2020/12/13 04:05:19;;;;;;;5.60;2.53;;;;;;;;;;5023614;28;20198;-81
2020/12/13 04:07:45;;;;;;;10.05;2.72;;;;;;;;;;5038848;28;20695;-80
2020/12/13 04:10:11;;;;;;;5.73;1.53;;;;;;;;;;5039054;28;20175;-81
2020/12/13 04:12:37;;;;;;;2.63;1.30;;;;;;;;;;5023317;28;20514;-81
2020/12/13 04:15:03;;;;;;;4.20;1.80;;;;;;;;;;5023461;28;20626;-81
2020/12/13 04:17:29;;;;;;;4.20;1.85;;;;;;;;;;5039486;28;20178;-79
2020/12/13 04:19:55;;;;;;;6.63;1.43;;;;;;;;;;5023407;28;20185;-81
2020/12/13 04:22:21;;;;;;;3.50;1.57;;;;;;;;;;5023671;28;20804;-81
2020/12/13 04:24:47;;;;;;;2.60;1.40;;;;;;;;;;5039501;28;20421;-80
2020/12/13 04:27:13;;;;;;;7.65;2.40;;;;;;;;;;5022657;28;20457;-80
2020/12/13 04:29:39;;;;;;;1.70;1.50;;;;;;;;;;5021549;28;20197;-81
2020/12/13 04:32:05;;;;;;;5.13;1.80;;;;;;;;;;5039005;28;20463;-80
2020/12/13 04:34:30;;;;;;;2.50;1.60;;;;;;;;;;5037390;28;20183;-81
2020/12/13 04:36:59;;;;;;;4.97;1.70;;;;;;;;;;5023531;28;20182;-81
2020/12/13 04:39:25;;;;;;;3.38;1.75;;;;;;;;;;5034332;28;20911;-80
2020/12/13 04:41:51;;;;;;;2.28;2.08;;;;;;;;;;5021805;28;20191;-81
2020/12/13 04:44:19;;;;;;;6.68;1.70;;;;;;;;;;5037354;28;20190;-81
2020/12/13 04:46:45;;;;;;;2.72;1.77;;;;;;;;;;5022780;28;20210;-81
2020/12/13 04:49:12;;;;;;;4.85;1.88;;;;;;;;;;5038042;28;20193;-81
2020/12/13 04:51:38;;;;;;;4.03;2.13;;;;;;;;;;5024125;28;20231;-81
2020/12/13 04:54:06;;;;;;;4.75;1.98;;;;;;;;;;5038645;28;20238;-81
2020/12/13 04:56:33;;;;;;;5.38;2.63;;;;;;;;;;5022675;28;20213;-80
2020/12/13 04:59:01;;;;;;;5.07;1.85;;;;;;;;;;5037222;28;20243;-80
2020/12/13 05:01:27;;;;;;;6.18;1.67;;;;;;;;;;5036659;28;20211;-81
2020/12/13 05:03:53;;;;;;;5.22;2.13;;;;;;;;;;5038529;28;20201;-81
2020/12/13 05:06:19;;;;;;;2.78;1.40;;;;;;;;;;5023661;28;20190;-81
2020/12/13 05:08:48;;;;;;;5.32;2.72;;;;;;;;;;5037113;28;20205;-81
2020/12/13 05:11:15;;;;;;;2.60;1.42;;;;;;;;;;5038485;28;20573;-81
2020/12/13 05:13:42;;;;;;;4.65;1.63;;;;;;;;;;5022580;28;20680;-81
2020/12/13 05:16:08;;;;;;;4.28;2.00;;;;;;;;;;5038137;28;20175;-80
2020/12/13 05:18:38;;;;;;;5.07;2.30;;;;;;;;;;5022529;28;20631;-80
2020/12/13 05:21:05;;;;;;;2.35;1.90;;;;;;;;;;5037883;28;20197;-81
2020/12/13 05:23:31;;;;;;;6.15;1.90;;;;;;;;;;5037812;28;20193;-81
2020/12/13 05:25:57;;;;;;;3.10;2.03;;;;;;;;;;5037033;28;20209;-81
2020/12/13 05:28:24;;;;;;;3.53;1.43;;;;;;;;;;5035433;28;20183;-81
2020/12/13 05:30:50;;;;;;;3.33;2.33;;;;;;;;;;5022610;28;20431;-81
2020/12/13 05:33:23;;;;;;;7.78;1.90;;;;;;;;;;5023878;28;20178;-80
2020/12/13 05:35:49;;;;;;;6.65;1.90;;;;;;;;;;5021639;28;20182;-80
2020/12/13 05:38:16;;;;;;;7.05;2.17;;;;;;;;;;5021049;28;20202;-81
2020/12/13 05:40:42;;;;;;;5.72;2.33;;;;;;;;;;5038078;28;20190;-80
2020/12/13 05:43:17;;;;;;;3.88;2.63;;;;;;;;;;5022276;28;20189;-81
2020/12/13 05:51:40;;;;;;;4.15;1.85;;;;;;;;;;5029950;28;20554;-81
2020/12/13 05:54:10;;;;;;;5.07;1.85;;;;;;;;;;5030154;28;20224;-81
2020/12/13 05:56:36;;;;;;;9.20;2.97;;;;;;;;;;5030735;28;20194;-81
2020/12/13 05:59:03;;;;;;;3.72;1.92;;;;;;;;;;5030352;28;20201;-80
2020/12/13 06:01:30;;;;;;;5.03;1.50;;;;;;;;;;5016013;28;20189;-82
2020/12/13 06:03:59;;;;;;;1.92;1.35;;;;;;;;;;5026283;28;20228;-81
2020/12/13 06:06:26;;;;;;;3.53;1.77;;;;;;;;;;5032600;28;20210;-82
2020/12/13 06:09:12;;;;;;;10.02;2.00;;;;;;;;;;5025849;28;20639;-81
2020/12/13 06:11:43;;;;;;;5.53;1.60;;;;;;;;;;5039106;28;20189;-82
2020/12/13 06:14:11;;;;;;;2.60;1.58;;;;;;;;;;5017943;28;20224;-81
2020/12/13 06:16:36;;;;;;;2.95;1.90;;;;;;;;;;5031682;28;20640;-81
2020/12/13 06:19:04;;;;;;;1.63;1.42;;;;;;;;;;5025803;28;20209;-81
2020/12/13 06:21:31;;;;;;;3.63;2.47;;;;;;;;;;5029388;28;20958;-81
2020/12/13 06:23:57;;;;;;;4.43;1.98;;;;;;;;;;5026460;28;20493;-82
2020/12/13 06:26:24;;;;;;;10.02;1.80;;;;;;;;;;5028165;28;20416;-82
2020/12/13 06:28:51;;;;;;;4.90;1.95;;;;;;;;;;5043141;28;20186;-81
2020/12/13 06:31:17;;;;;;;5.60;1.77;;;;;;;;;;5043901;28;20186;-80
2020/12/13 06:33:44;;;;;;;6.78;2.53;;;;;;;;;;5033261;28;20209;-80
2020/12/13 06:36:10;;;;;;;9.10;2.40;;;;;;;;;;5034693;28;20175;-81
2020/12/13 06:38:36;;;;;;;5.65;2.60;;;;;;;;;;5039059;28;20181;-80
2020/12/13 06:41:13;;;;;;;3.40;2.35;;;;;;;;;;5043883;28;20197;-80
2020/12/13 06:43:40;;;;;;;4.38;2.13;;;;;;;;;;5043161;28;20178;-81
2020/12/13 06:46:15;;;;;;;8.02;2.45;;;;;;;;;;5043229;28;20210;-80
2020/12/13 06:48:42;;;;;;;6.32;2.30;;;;;;;;;;5023699;28;20181;-80
2020/12/13 06:51:09;;;;;;;7.03;2.58;;;;;;;;;;5028977;28;20175;-81
2020/12/13 06:53:38;;;;;;;2.53;1.98;;;;;;;;;;5043187;28;20246;-81
2020/12/13 06:56:14;;;;;;;7.97;2.58;;;;;;;;;;5028029;28;20216;-81
2020/12/13 06:58:44;;;;;;;5.60;2.90;;;;;;;;;;5028055;28;20240;-81
2020/12/13 07:01:20;;;;;;;5.75;2.10;;;;;;;;;;5043649;28;20319;-81
2020/12/13 07:03:47;;;;;;;3.40;3.05;;;;;;;;;;5020431;28;20182;-80
2020/12/13 07:06:27;;;;;;;8.50;2.97;;;;;;;;;;5012244;28;20233;-81
2020/12/13 07:09:01;;;;;;;5.22;2.50;;;;;;;;;;5022783;28;20182;-81
2020/12/13 07:11:29;;;;;;;2.80;2.50;;;;;;;;;;5040207;28;20189;-82
2020/12/13 07:14:06;;;;;;;3.78;2.20;;;;;;;;;;5039833;28;20266;-81
2020/12/13 07:16:37;;;;;;;3.10;2.22;;;;;;;;;;5039588;28;20190;-81
2020/12/13 07:19:07;;;;;;;8.60;2.85;;;;;;;;;;5039872;28;20190;-81
2020/12/13 07:21:34;;;;;;;4.85;2.67;;;;;;;;;;5025497;28;20191;-81
2020/12/13 07:24:00;;;;;;;5.85;2.95;;;;;;;;;;5040587;28;20205;-82
2020/12/13 07:26:30;;;;;;;3.85;2.17;;;;;;;;;;5039033;28;20204;-81
2020/12/13 07:28:57;;;;;;;7.40;2.40;;;;;;;;;;5012876;28;20190;-81
2020/12/13 07:31:24;;;;;;;4.03;3.10;;;;;;;;;;5038060;28;20234;-80
2020/12/13 07:33:50;;;;;;;3.50;2.83;;;;;;;;;;5025210;28;20183;-81
2020/12/13 07:36:17;;;;;;;5.93;2.85;;;;;;;;;;5024452;28;20703;-81
2020/12/13 07:38:43;;;;;;;4.70;3.25;;;;;;;;;;5024503;28;20197;-79
2020/12/13 07:41:19;;;;;;;9.35;2.83;;;;;;;;;;5023567;28;20183;-79
2020/12/13 07:43:51;;;;;;;7.53;2.90;;;;;;;;;;5040302;28;20182;-81
2020/12/13 07:46:17;;;;;;;11.18;3.10;;;;;;;;;;5008816;28;20203;-80
2020/12/13 07:48:43;;;;;;;8.25;3.78;;;;;;;;;;5040335;28;20262;-81
2020/12/13 07:51:10;;;;;;;8.37;4.07;;;;;;;;;;5023505;28;20174;-82
2020/12/13 07:53:36;;;;;;;8.48;3.20;;;;;;;;;;5039256;28;20449;-82
2020/12/13 07:56:02;;;;;;;4.22;2.30;;;;;;;;;;5038007;28;20194;-81
2020/12/13 07:58:28;;;;;;;3.63;2.45;;;;;;;;;;5038873;28;20190;-82
2020/12/13 08:01:08;;;;;;;4.43;2.78;;;;;;;;;;5038302;28;20182;-82
2020/12/13 08:03:47;;;;;;;3.97;2.70;;;;;;;;;;5035921;28;20199;-81
2020/12/13 08:06:15;;;;;;;5.80;3.90;;;;;;;;;;5024010;28;20216;-82
2020/12/13 08:08:42;;;;;;;9.13;4.90;;;;;;;;;;5018829;28;20250;-82
2020/12/13 08:11:10;;;;;;;6.53;4.15;;;;;;;;;;5035229;28;20202;-81
2020/12/13 08:13:36;;;;;;;7.75;4.60;;;;;;;;;;5023019;28;20244;-81
2020/12/13 08:16:02;;;;;;;7.82;3.88;;;;;;;;;;5022491;28;20194;-82
2020/12/13 08:18:29;;;;;;;4.95;3.70;;;;;;;;;;5018572;28;20183;-81
2020/12/13 08:20:56;;;;;;;11.18;4.10;;;;;;;;;;5022721;28;20186;-82
2020/12/13 08:23:23;;;;;;;4.93;3.63;;;;;;;;;;5023021;28;20187;-80
2020/12/13 08:25:49;;;;;;;7.18;4.40;;;;;;;;;;5020800;28;20270;-82
2020/12/13 08:28:15;;;;;;;8.13;3.85;;;;;;;;;;5035590;28;20221;-82
2020/12/13 08:30:42;;;;;;;8.75;3.20;;;;;;;;;;5030201;28;20174;-82
2020/12/13 08:33:11;;;;;;;7.75;3.28;;;;;;;;;;5020497;28;20217;-82
2020/12/13 08:35:37;;;;;;;3.45;2.72;;;;;;;;;;5020957;28;20241;-82
2020/12/13 08:38:04;;;;;;;5.60;3.20;;;;;;;;;;5038078;28;20597;-82
2020/12/13 08:40:51;;;;;;;6.78;3.10;;;;;;;;;;5023321;28;20337;-83
2020/12/13 08:43:17;;;;;;;7.15;3.13;;;;;;;;;;5015554;28;20186;-82
2020/12/13 08:45:51;;;;;;;5.65;3.40;;;;;;;;;;5039268;28;20190;-82
2020/12/13 08:48:24;;;;;;;3.92;2.78;;;;;;;;;;5021042;28;20193;-82
2020/12/13 08:51:02;;;;;;;9.57;3.45;;;;;;;;;;5038262;28;20664;-82
2020/12/13 08:53:29;;;;;;;6.20;3.38;;;;;;;;;;5037932;28;20186;-82
2020/12/13 08:56:08;;;;;;;6.05;3.00;;;;;;;;;;5022563;28;20208;-81
2020/12/13 08:58:51;;;;;;;5.70;2.92;;;;;;;;;;5037178;28;20367;-82
2020/12/13 09:01:18;;;;;;;6.47;3.15;;;;;;;;;;5017752;28;20213;-81
2020/12/13 09:03:44;;;;;;;7.63;3.45;;;;;;;;;;5017433;28;20197;-81
2020/12/13 09:06:11;;;;;;;8.65;3.60;;;;;;;;;;5022164;28;20226;-82
2020/12/13 09:08:37;;;;;;;10.10;3.60;;;;;;;;;;5037365;28;20213;-83
2020/12/13 09:11:07;;;;;;;11.40;3.30;;;;;;;;;;5023078;28;20190;-81
2020/12/13 09:13:33;;;;;;;6.45;3.33;;;;;;;;;;5020731;28;20445;-80
2020/12/13 09:15:59;;;;;;;9.45;3.20;;;;;;;;;;5021436;28;20395;-81
2020/12/13 09:18:25;;;;;;;5.45;2.80;;;;;;;;;;5024272;28;20174;-81
2020/12/13 09:20:57;;;;;;;3.88;3.22;;;;;;;;;;5019902;28;20184;-81
2020/12/13 09:23:24;;;;;;;6.93;3.88;;;;;;;;;;5019944;28;20624;-82
2020/12/13 09:25:52;;;;;;;4.72;3.53;;;;;;;;;;5027689;28;20206;-80
2020/12/13 09:28:18;;;;;;;5.57;3.63;;;;;;;;;;5034079;28;20186;-82
2020/12/13 09:30:45;;;;;;;6.05;3.17;;;;;;;;;;5023277;28;20206;-82
2020/12/13 09:33:12;;;;;;;7.97;4.32;;;;;;;;;;5011121;28;20172;-83
2020/12/13 09:35:38;;;;;;;6.88;3.63;;;;;;;;;;5034049;28;20229;-83
2020/12/13 09:38:05;;;;;;;7.85;3.28;;;;;;;;;;5022066;28;20187;-82
2020/12/13 09:40:32;;;;;;;5.93;3.88;;;;;;;;;;5023390;28;20194;-83
2020/12/13 09:42:58;;;;;;;8.50;3.78;;;;;;;;;;5037481;28;20185;-83
2020/12/13 09:45:25;;;;;;;4.10;3.10;;;;;;;;;;5021677;28;20213;-83
2020/12/13 09:47:55;;;;;;;4.45;3.30;;;;;;;;;;5037486;28;20186;-83
2020/12/13 09:50:22;;;;;;;4.43;3.20;;;;;;;;;;5023049;28;20261;-83
2020/12/13 09:52:48;;;;;;;8.30;4.88;;;;;;;;;;5022523;28;20178;-84
2020/12/13 09:55:14;;;;;;;10.25;4.03;;;;;;;;;;5023293;28;20214;-83
2020/12/13 09:57:40;;;;;;;5.32;3.08;;;;;;;;;;5017701;28;20265;-84
2020/12/13 10:00:06;;;;;;;9.32;3.15;;;;;;;;;;5022941;28;20186;-83
2020/12/13 10:02:32;;;;;;;5.05;2.92;;;;;;;;;;5023301;28;20190;-83
2020/12/13 10:04:59;;;;;;;3.70;3.10;;;;;;;;;;5023414;28;20766;-82
2020/12/13 10:10:10;;;;;;;5.80;2.97;;;;;;;;;;5022780;28;20189;-83
2020/12/13 10:12:36;;;;;;;5.60;3.20;;;;;;;;;;5022736;28;20206;-82
2020/12/13 10:15:02;;;;;;;13.35;4.70;;;;;;;;;;5038086;28;20441;-83
2020/12/13 10:17:29;;;;;;;5.22;3.50;;;;;;;;;;5022224;28;20269;-84
2020/12/13 10:19:55;;;;;;;5.97;3.10;;;;;;;;;;5022714;28;20171;-82
2020/12/13 10:22:21;;;;;;;6.82;3.28;;;;;;;;;;5037549;28;20178;-83
2020/12/13 10:24:47;;;;;;;10.77;3.37;;;;;;;;;;5022929;28;20183;-81
2020/12/13 10:27:13;;;;;;;5.10;2.80;;;;;;;;;;5023258;28;20488;-83
2020/12/13 10:29:39;;;;;;;6.20;3.47;;;;;;;;;;5037452;28;20187;-83
2020/12/13 10:32:05;;;;;;;6.57;3.90;;;;;;;;;;5022309;28;20245;-83
2020/12/13 10:34:31;;;;;;;9.40;3.90;;;;;;;;;;5037122;28;20426;-82
2020/12/13 10:36:57;;;;;;;5.00;3.37;;;;;;;;;;5022278;28;20499;-82
2020/12/13 10:39:23;;;;;;;5.93;3.20;;;;;;;;;;5025399;28;20481;-82
2020/12/13 10:41:53;;;;;;;5.00;4.00;;;;;;;;;;5041309;28;20178;-83
2020/12/13 10:44:19;;;;;;;7.55;4.32;;;;;;;;;;5041155;28;20202;-83
2020/12/13 10:46:46;;;;;;;8.68;3.60;;;;;;;;;;5025825;28;20202;-83
2020/12/13 10:49:12;;;;;;;4.50;3.85;;;;;;;;;;5026009;28;20178;-83
2020/12/13 10:51:38;;;;;;;8.50;4.57;;;;;;;;;;5025795;28;20651;-83
2020/12/13 10:54:05;;;;;;;7.38;3.78;;;;;;;;;;5041435;28;20519;-82
2020/12/13 10:56:31;;;;;;;5.82;3.65;;;;;;;;;;5025703;28;20610;-81
2020/12/13 10:58:57;;;;;;;4.72;3.70;;;;;;;;;;5040151;28;20210;-82
2020/12/13 11:01:23;;;;;;;6.90;3.97;;;;;;;;;;5039245;28;20187;-81
2020/12/13 11:03:49;;;;;;;5.82;3.38;;;;;;;;;;5026883;28;20178;-82
2020/12/13 11:06:15;;;;;;;9.02;3.50;;;;;;;;;;5025321;28;20202;-83
2020/12/13 11:08:41;;;;;;;6.13;3.97;;;;;;;;;;5025069;28;20188;-81
2020/12/13 11:11:07;;;;;;;8.37;4.10;;;;;;;;;;5041417;28;20775;-83
2020/12/13 11:13:34;;;;;;;5.63;3.17;;;;;;;;;;5039950;28;20480;-83
2020/12/13 11:16:00;;;;;;;23.55;4.30;;;;;;;;;;5025476;28;20179;-82
2020/12/13 11:18:30;;;;;;;9.95;3.90;;;;;;;;;;5025809;28;20193;-82
2020/12/13 11:20:56;;;;;;;8.25;3.10;;;;;;;;;;5040000;28;20686;-82
2020/12/13 11:23:22;;;;;;;10.05;2.50;;;;;;;;;;5041102;28;20186;-83
2020/12/13 11:25:48;;;;;;;6.43;3.80;;;;;;;;;;5040567;28;20718;-82
2020/12/13 11:28:14;;;;;;;9.18;3.88;;;;;;;;;;5039846;28;20209;-82
2020/12/13 11:30:40;;;;;;;5.50;3.33;;;;;;;;;;5022290;28;20178;-82
2020/12/13 11:33:06;;;;;;;4.47;2.77;;;;;;;;;;5040391;28;20480;-82
2020/12/13 11:35:32;;;;;;;5.15;2.70;;;;;;;;;;5026014;28;20526;-83
2020/12/13 11:37:58;;;;;;;7.07;2.85;;;;;;;;;;5039953;28;20604;-83
2020/12/13 11:40:24;;;;;;;5.20;2.72;;;;;;;;;;5025236;28;20659;-83
2020/12/13 11:42:50;;;;;;;9.05;3.20;;;;;;;;;;5024825;28;20533;-82
2020/12/13 11:45:16;;;;;;;7.55;2.75;;;;;;;;;;5024821;28;20206;-82
2020/12/13 11:47:42;;;;;;;4.00;3.60;;;;;;;;;;5039068;28;20257;-82
2020/12/13 11:50:10;;;;;;;6.57;2.90;;;;;;;;;;5039362;28;20194;-82
2020/12/13 11:52:37;;;;;;;5.22;2.60;;;;;;;;;;5039985;28;20182;-79
2020/12/13 11:55:04;;;;;;;11.27;3.58;;;;;;;;;;5040262;28;20312;-83
2020/12/13 11:57:30;;;;;;;7.18;2.97;;;;;;;;;;5024496;28;20249;-82
2020/12/13 11:59:56;;;;;;;5.82;2.63;;;;;;;;;;5039608;28;20205;-80
2020/12/13 12:02:21;;;;;;;6.63;3.10;;;;;;;;;;5022973;28;20274;-81
2020/12/13 12:04:48;;;;;;;5.00;2.50;;;;;;;;;;5039924;28;20460;-80
2020/12/13 12:07:14;;;;;;;10.18;2.70;;;;;;;;;;5039592;28;20461;-80
2020/12/13 12:09:40;;;;;;;7.55;2.83;;;;;;;;;;5024836;28;20277;-80
2020/12/13 12:12:06;;;;;;;4.68;2.50;;;;;;;;;;5023406;28;20198;-80
2020/12/13 12:14:32;;;;;;;8.15;2.60;;;;;;;;;;5037832;28;20208;-80
2020/12/13 12:16:58;;;;;;;7.50;3.60;;;;;;;;;;5022298;28;20194;-80
2020/12/13 12:19:24;;;;;;;7.00;3.28;;;;;;;;;;5039192;28;20464;-80
2020/12/13 12:21:50;;;;;;;11.52;2.90;;;;;;;;;;5039718;28;20245;-80
2020/12/13 12:24:20;;;;;;;4.70;3.05;;;;;;;;;;5023359;28;20182;-81
2020/12/13 12:26:46;;;;;;;4.78;2.85;;;;;;;;;;5023248;28;20562;-80
2020/12/13 12:29:12;;;;;;;6.35;4.25;;;;;;;;;;5021615;28;20633;-76
2020/12/13 12:31:38;;;;;;;8.18;3.00;;;;;;;;;;5023608;28;20189;-76
2020/12/13 12:34:04;;;;;;;5.47;2.57;;;;;;;;;;5023835;28;21228;-75
2020/12/13 12:36:30;;;;;;;4.20;2.90;;;;;;;;;;5024975;28;20433;-75
2020/12/13 12:38:57;;;;;;;7.57;2.70;;;;;;;;;;5022868;28;20237;-76
2020/12/13 12:41:23;;;;;;;5.63;2.38;;;;;;;;;;5018515;28;20265;-76
2020/12/13 12:43:50;;;;;;;9.38;2.38;;;;;;;;;;5016683;28;20368;-75
2020/12/13 12:46:16;;;;;;;5.80;3.10;;;;;;;;;;5038445;28;20202;-75
2020/12/13 12:48:47;;;;;;;6.35;2.92;;;;;;;;;;5038947;28;20224;-76
2020/12/13 12:51:13;;;;;;;7.35;2.40;;;;;;;;;;5038879;28;20182;-76
2020/12/13 12:53:39;;;;;;;3.00;1.80;;;;;;;;;;5038188;28;20629;-76
2020/12/13 12:56:09;;;;;;;4.53;2.50;;;;;;;;;;5038262;28;20225;-76
2020/12/13 12:59:20;;;;;;;3.25;2.50;;;;;;;;;;5037967;28;20232;-76
2020/12/13 13:01:35;;;;;;;4.72;1.83;;;;;;;;;;5014964;28;20190;-75
2020/12/13 13:04:05;;;;;;;4.53;2.83;;;;;;;;;;5038507;28;20291;-76
2020/12/13 13:06:41;;;;;;;10.65;2.80;;;;;;;;;;5023365;28;20218;-76
2020/12/13 13:11:38;;;;;;;7.82;3.15;;;;;;;;;;5024020;28;20182;-75
2020/12/13 13:14:04;;;;;;;5.25;2.33;;;;;;;;;;5037693;28;20210;-75
2020/12/13 13:16:31;;;;;;;5.95;2.40;;;;;;;;;;5038345;28;20547;-76
2020/12/13 13:19:03;;;;;;;5.95;2.70;;;;;;;;;;5015597;28;20572;-76
2020/12/13 13:21:40;;;;;;;6.22;2.42;;;;;;;;;;5018474;28;20171;-76
2020/12/13 13:24:07;;;;;;;4.15;2.33;;;;;;;;;;5021168;28;20185;-76
2020/12/13 13:26:34;;;;;;;3.50;2.63;;;;;;;;;;5017090;28;20229;-76
2020/12/13 13:29:00;;;;;;;5.40;2.38;;;;;;;;;;5033187;28;20261;-76
2020/12/13 13:31:26;;;;;;;4.80;2.10;;;;;;;;;;5037322;28;20190;-76
2020/12/13 13:33:53;;;;;;;5.57;2.65;;;;;;;;;;5010811;28;20193;-76
2020/12/13 13:36:19;;;;;;;3.95;3.40;;;;;;;;;;5023726;28;20820;-76
2020/12/13 13:38:46;;;;;;;5.53;2.33;;;;;;;;;;5037268;28;20282;-76
2020/12/13 13:41:18;;;;;;;6.25;2.47;;;;;;;;;;5022914;28;20543;-76
2020/12/13 13:43:47;;;;;;;4.18;2.22;;;;;;;;;;5037710;28;20261;-77
2020/12/13 13:51:25;;;;;;;5.53;4.55;;;;;;;;;;5021071;28;20256;-76
2020/12/13 13:53:51;;;;;;;5.57;3.50;;;;;;;;;;5038192;28;20214;-76
2020/12/13 13:56:19;;;;;;;8.60;3.42;;;;;;;;;;5023004;28;20450;-76
2020/12/13 13:58:47;;;;;;;4.13;2.30;;;;;;;;;;5037558;28;20182;-76
2020/12/13 14:01:13;;;;;;;4.55;2.10;;;;;;;;;;5007457;28;20189;-76
2020/12/13 14:03:40;;;;;;;5.40;2.55;;;;;;;;;;5022179;28;20273;-76
2020/12/13 14:06:15;;;;;;;4.45;2.67;;;;;;;;;;5022907;28;20201;-76
2020/12/13 14:08:42;;;;;;;3.58;2.50;;;;;;;;;;5018677;28;20189;-76
2020/12/13 14:11:08;;;;;;;5.20;2.53;;;;;;;;;;5037820;28;20209;-76
2020/12/13 14:13:35;;;;;;;6.40;2.50;;;;;;;;;;5040543;28;20186;-76
2020/12/13 14:16:01;;;;;;;5.85;2.72;;;;;;;;;;5039446;28;20179;-76
2020/12/13 14:18:27;;;;;;;4.47;2.03;;;;;;;;;;5023935;28;20551;-75
2020/12/13 14:20:54;;;;;;;3.50;2.73;;;;;;;;;;5042247;28;20186;-76
2020/12/13 14:23:20;;;;;;;3.72;2.60;;;;;;;;;;5026480;28;20469;-76
2020/12/13 14:25:46;;;;;;;8.02;5.43;;;;;;;;;;5026745;28;20216;-77
2020/12/13 14:28:12;;;;;;;4.43;2.40;;;;;;;;;;5025607;28;20210;-76
2020/12/13 14:30:38;;;;;;;3.93;2.60;;;;;;;;;;5026044;28;20197;-76
2020/12/13 14:33:04;;;;;;;3.10;2.10;;;;;;;;;;5041873;28;20499;-76
2020/12/13 14:35:29;;;;;;;1.90;1.70;;;;;;;;;;5041503;28;20449;-76
2020/12/13 14:37:56;;;;;;;2.67;2.03;;;;;;;;;;5026120;28;20182;-76
2020/12/13 14:40:22;;;;;;;3.97;1.90;;;;;;;;;;5041839;28;20421;-75
2020/12/13 14:42:48;;;;;;;2.58;2.03;;;;;;;;;;5040074;28;20193;-76
2020/12/13 14:45:15;;;;;;;5.93;3.00;;;;;;;;;;5025136;28;20174;-76
2020/12/13 14:47:41;;;;;;;5.88;4.93;;;;;;;;;;5025611;28;20436;-75
2020/12/13 14:50:07;;;;;;;4.20;2.80;;;;;;;;;;5040692;28;20186;-75
2020/12/13 14:52:33;;;;;;;2.30;1.63;;;;;;;;;;5041047;28;20186;-76
2020/12/13 14:54:59;;;;;;;4.70;2.37;;;;;;;;;;5041089;28;20473;-76
2020/12/13 14:57:26;;;;;;;4.57;2.85;;;;;;;;;;5023427;28;20476;-75
2020/12/13 14:59:55;;;;;;;9.68;2.90;;;;;;;;;;5019902;28;20186;-75
2020/12/13 15:02:21;;;;;;;3.13;2.20;;;;;;;;;;5018331;28;20186;-75